createdAt,value
2022-08-23T00:02:26.609Z,76.09
2022-08-23T00:05:07.995Z,75.92
2022-08-23T00:07:38.229Z,76.03
2022-08-23T00:10:05.367Z,76.23
2022-08-23T00:12:31.775Z,76.72
2022-08-23T00:14:58.412Z,76.69
2022-08-23T00:17:33.343Z,77.00
2022-08-23T00:20:04.715Z,76.74
2022-08-23T00:22:31.232Z,77.54
2022-08-23T00:24:57.658Z,78.31
2022-08-23T00:27:24.146Z,76.75
2022-08-23T00:29:52.071Z,77.12
2022-08-23T00:32:20.019Z,77.63
2022-08-23T00:34:46.631Z,77.14
2022-08-23T00:37:13.443Z,77.44
2022-08-23T00:39:40.678Z,77.67
2022-08-23T00:42:31.038Z,76.77
2022-08-23T00:45:17.718Z,75.42
2022-08-23T00:47:45.099Z,76.64
2022-08-23T00:50:19.296Z,76.13
2022-08-23T00:52:57.015Z,77.25
2022-08-23T00:55:24.698Z,78.26
2022-08-23T00:57:51.805Z,78.88
2022-08-23T01:00:18.893Z,79.89
2022-08-23T01:02:46.330Z,81.79
2022-08-23T01:05:13.696Z,79.33
2022-08-23T01:08:00.167Z,79.46
2022-08-23T01:10:32.259Z,79.38
2022-08-23T01:13:11.789Z,79.35
2022-08-23T01:15:44.137Z,80.28
2022-08-23T01:18:13.674Z,80.93
2022-08-23T01:21:02.930Z,82.57
2022-08-23T01:24:08.089Z,80.69
2022-08-23T01:26:35.308Z,80.12
2022-08-23T01:29:04.176Z,80.02
2022-08-23T01:31:30.586Z,79.64
2022-08-23T01:33:59.193Z,81.33
2022-08-23T01:36:29.221Z,81.08
2022-08-23T01:39:01.740Z,80.16
2022-08-23T01:41:28.145Z,80.92
2022-08-23T01:43:54.539Z,81.13
2022-08-23T01:46:21.990Z,80.74
2022-08-23T01:48:49.742Z,79.55
2022-08-23T01:51:16.921Z,80.09
2022-08-23T01:53:43.409Z,79.86
2022-08-23T01:56:12.716Z,79.94
2022-08-23T01:58:39.244Z,79.45
2022-08-23T02:01:05.790Z,79.04
2022-08-23T02:03:32.754Z,79.72
2022-08-23T02:05:59.676Z,80.34
2022-08-23T02:08:58.827Z,79.90
2022-08-23T02:11:25.888Z,79.75
2022-08-23T02:13:53.661Z,80.60
2022-08-23T02:16:27.781Z,80.94
2022-08-23T02:18:56.084Z,80.04
2022-08-23T02:21:22.660Z,81.36
2022-08-23T02:23:49.211Z,81.59
2022-08-23T02:26:15.612Z,80.57
2022-08-23T02:28:42.125Z,79.11
2022-08-23T02:31:08.605Z,80.08
2022-08-23T02:33:37.771Z,79.51
2022-08-23T02:36:04.328Z,81.57
2022-08-23T02:38:37.276Z,81.29
2022-08-23T02:41:03.689Z,81.09
2022-08-23T02:43:30.291Z,80.16
2022-08-23T02:45:59.559Z,80.64
2022-08-23T02:48:29.229Z,80.81
2022-08-23T02:50:58.675Z,80.29
2022-08-23T02:53:25.182Z,80.63
2022-08-23T02:55:52.173Z,80.93
2022-08-23T02:58:18.569Z,80.92
2022-08-23T03:00:48.789Z,80.27
2022-08-23T03:03:15.641Z,81.06
2022-08-23T03:05:45.919Z,81.95
2022-08-23T03:08:12.362Z,83.97
2022-08-23T03:10:42.324Z,84.19
2022-08-23T03:13:08.712Z,83.99
2022-08-23T03:15:35.116Z,83.50
2022-08-23T03:18:01.763Z,83.35
2022-08-23T03:20:28.672Z,81.94
2022-08-23T03:22:55.197Z,81.35
2022-08-23T03:25:21.755Z,82.28
2022-08-23T03:27:48.350Z,81.68
2022-08-23T03:30:19.172Z,80.99
2022-08-23T03:32:49.545Z,80.85
2022-08-23T03:35:16.319Z,80.75
2022-08-23T03:37:42.749Z,80.70
2022-08-23T03:40:09.621Z,81.04
2022-08-23T03:42:42.661Z,80.15
2022-08-23T03:45:09.246Z,81.33
2022-08-23T03:47:36.007Z,80.98
2022-08-23T03:50:02.504Z,82.28
2022-08-23T03:52:28.946Z,82.59
2022-08-23T03:54:55.356Z,81.56
2022-08-23T03:57:21.748Z,81.24
2022-08-23T03:59:48.873Z,82.50
2022-08-23T04:02:15.803Z,82.51
2022-08-23T04:04:42.357Z,83.44
2022-08-23T04:07:09.152Z,83.37
2022-08-23T04:09:35.574Z,83.36
2022-08-23T04:12:02.079Z,83.21
2022-08-23T04:14:28.510Z,82.86
2022-08-23T04:16:55.751Z,83.26
2022-08-23T04:19:23.319Z,84.20
2022-08-23T04:21:50.938Z,84.51
2022-08-23T04:24:20.453Z,85.17
2022-08-23T04:26:46.892Z,83.76
2022-08-23T04:29:23.009Z,82.78
2022-08-23T04:32:00.748Z,81.84
2022-08-23T04:34:28.646Z,82.73
2022-08-23T04:36:55.520Z,83.57
2022-08-23T04:39:21.967Z,84.10
2022-08-23T04:42:06.778Z,83.88
2022-08-23T04:44:36.026Z,83.05
2022-08-23T04:47:02.486Z,81.83
2022-08-23T04:49:29.036Z,83.07
2022-08-23T04:51:56.092Z,83.89
2022-08-23T04:54:26.097Z,83.74
2022-08-23T04:56:52.519Z,83.65
2022-08-23T04:59:19.638Z,82.94
2022-08-23T05:01:46.173Z,82.67
2022-08-23T05:04:12.581Z,82.27
2022-08-23T05:06:40.390Z,82.23
2022-08-23T05:09:10.097Z,82.24
2022-08-23T05:11:36.595Z,83.40
2022-08-23T05:14:03.391Z,82.04
2022-08-23T05:16:29.873Z,81.73
2022-08-23T05:18:56.417Z,82.79
2022-08-23T05:21:26.633Z,83.26
2022-08-23T05:23:54.725Z,83.12
2022-08-23T05:26:24.701Z,83.20
2022-08-23T05:28:51.204Z,83.77
2022-08-23T05:31:17.903Z,80.95
2022-08-23T05:33:45.175Z,80.07
2022-08-23T05:36:14.151Z,80.93
2022-08-23T05:38:41.166Z,82.40
2022-08-23T05:41:08.341Z,84.22
2022-08-23T05:43:35.562Z,83.18
2022-08-23T05:46:03.777Z,83.28
2022-08-23T05:48:31.853Z,81.41
2022-08-23T05:50:58.477Z,81.50
2022-08-23T05:53:24.910Z,80.22
2022-08-23T05:55:51.287Z,80.50
2022-08-23T05:58:17.786Z,80.27
2022-08-23T06:00:44.204Z,80.37
2022-08-23T06:03:10.680Z,79.46
2022-08-23T06:05:41.612Z,79.10
2022-08-23T06:08:08.177Z,80.82
2022-08-23T06:10:38.309Z,81.21
2022-08-23T06:13:06.937Z,79.89
2022-08-23T06:15:33.421Z,79.76
2022-08-23T06:18:00.088Z,80.35
2022-08-23T06:20:26.642Z,80.05
2022-08-23T06:22:53.126Z,80.77
2022-08-23T06:25:19.523Z,80.75
2022-08-23T06:27:46.011Z,80.50
2022-08-23T06:30:13.282Z,82.50
2022-08-23T06:32:43.075Z,81.32
2022-08-23T06:35:37.643Z,80.28
2022-08-23T06:37:56.764Z,80.83
2022-08-23T06:40:23.591Z,79.93
2022-08-23T06:42:50.138Z,79.68
2022-08-23T06:45:16.622Z,78.65
2022-08-23T06:47:43.308Z,77.87
2022-08-23T06:50:12.736Z,76.80
2022-08-23T06:52:45.356Z,75.97
2022-08-23T06:55:13.862Z,76.47
2022-08-23T06:57:40.737Z,76.75
2022-08-23T07:00:08.368Z,77.60
2022-08-23T07:02:35.347Z,78.31
2022-08-23T07:05:01.813Z,77.27
2022-08-23T07:07:37.586Z,76.76
2022-08-23T07:10:11.197Z,76.67
2022-08-23T07:12:38.504Z,75.67
2022-08-23T07:15:05.153Z,75.93
2022-08-23T07:17:31.560Z,74.46
2022-08-23T07:19:57.973Z,74.33
2022-08-23T07:22:24.738Z,73.22
2022-08-23T07:24:51.379Z,72.71
2022-08-23T07:27:17.877Z,73.26
2022-08-23T07:29:44.319Z,73.26
2022-08-23T07:32:10.889Z,72.83
2022-08-23T07:34:37.427Z,73.00
2022-08-23T07:37:04.438Z,72.74
2022-08-23T07:39:38.072Z,72.20
2022-08-23T07:42:23.365Z,72.21
2022-08-23T07:44:50.614Z,70.68
2022-08-23T07:47:18.154Z,69.55
2022-08-23T07:49:47.819Z,68.67
2022-08-23T07:52:17.573Z,67.86
2022-08-23T07:54:48.524Z,67.74
2022-08-23T07:57:15.979Z,66.10
2022-08-23T07:59:42.354Z,63.01
2022-08-23T08:02:11.685Z,63.64
2022-08-23T08:04:38.170Z,62.71
2022-08-23T08:07:19.244Z,62.38
2022-08-23T08:09:47.343Z,61.32
2022-08-23T08:12:13.847Z,59.73
2022-08-23T08:14:41.926Z,60.55
2022-08-23T08:17:08.355Z,58.14
2022-08-23T08:19:34.831Z,55.42
2022-08-23T08:22:01.297Z,55.00
2022-08-23T08:24:30.504Z,54.76
2022-08-23T08:26:58.243Z,53.33
2022-08-23T08:29:25.098Z,53.27
2022-08-23T08:31:54.279Z,53.74
2022-08-23T08:34:20.963Z,51.42
2022-08-23T08:36:49.508Z,51.20
2022-08-23T08:39:18.830Z,50.94
2022-08-23T08:41:45.327Z,51.67
2022-08-23T08:44:22.785Z,50.55
2022-08-23T08:46:52.808Z,49.78
2022-08-23T08:49:32.064Z,50.45
2022-08-23T08:52:13.952Z,50.39
2022-08-23T08:54:44.910Z,50.33
2022-08-23T08:57:16.968Z,50.28
2022-08-23T08:59:56.285Z,50.40
2022-08-23T09:02:32.268Z,49.55
2022-08-23T09:05:07.058Z,49.75
2022-08-23T09:07:44.778Z,48.10
2022-08-23T09:10:21.583Z,48.32
2022-08-23T09:12:53.414Z,48.52
2022-08-23T09:15:26.082Z,47.87
2022-08-23T09:17:52.553Z,47.80
2022-08-23T09:20:20.746Z,47.83
2022-08-23T09:22:48.832Z,47.71
2022-08-23T09:25:20.006Z,47.19
2022-08-23T09:27:46.511Z,47.19
2022-08-23T09:30:13.944Z,46.93
2022-08-23T09:32:43.113Z,46.40
2022-08-23T09:35:12.653Z,46.67
2022-08-23T09:37:49.998Z,46.56
2022-08-23T09:40:19.391Z,46.33
2022-08-23T09:42:47.378Z,46.41
2022-08-23T09:45:28.117Z,46.03
2022-08-23T09:47:55.446Z,45.85
2022-08-23T09:50:32.326Z,45.63
2022-08-23T09:53:04.465Z,45.77
2022-08-23T09:55:33.743Z,45.67
2022-08-23T09:58:01.958Z,45.33
2022-08-23T10:00:32.414Z,45.13
2022-08-23T10:03:22.461Z,43.57
2022-08-23T10:05:53.569Z,45.19
2022-08-23T10:08:32.829Z,44.40
2022-08-23T10:11:05.479Z,44.23
2022-08-23T10:13:34.573Z,43.94
2022-08-23T10:16:20.120Z,44.34
2022-08-23T10:18:46.566Z,43.48
2022-08-23T10:21:28.126Z,42.88
2022-08-23T10:24:00.532Z,42.14
2022-08-23T10:26:30.090Z,43.16
2022-08-23T10:29:30.199Z,41.78
2022-08-23T10:32:08.905Z,43.26
2022-08-23T10:34:50.848Z,43.64
2022-08-23T10:37:32.460Z,41.02
2022-08-23T10:40:03.504Z,42.56
2022-08-23T10:42:42.906Z,42.48
2022-08-23T10:45:12.018Z,42.21
2022-08-23T10:47:42.676Z,42.78
2022-08-23T10:50:17.960Z,42.27
2022-08-23T10:52:56.773Z,42.22
2022-08-23T10:55:36.871Z,42.13
2022-08-23T10:58:05.426Z,42.43
2022-08-23T11:00:38.206Z,42.39
2022-08-23T11:03:04.794Z,42.36
2022-08-23T11:05:33.346Z,42.57
2022-08-23T11:08:13.551Z,42.55
2022-08-23T11:10:39.926Z,42.29
2022-08-23T11:13:18.504Z,42.05
2022-08-23T11:15:47.173Z,42.19
2022-08-23T11:18:28.993Z,39.58
2022-08-23T11:21:04.247Z,39.87
2022-08-23T11:23:49.421Z,41.49
2022-08-23T11:26:28.296Z,41.28
2022-08-23T11:28:54.687Z,41.30
2022-08-23T11:31:21.324Z,40.91
2022-08-23T11:33:53.729Z,41.53
2022-08-23T11:36:22.078Z,41.32
2022-08-23T11:38:48.533Z,40.33
2022-08-23T11:41:14.884Z,41.56
2022-08-23T11:43:42.977Z,38.71
2022-08-23T11:46:27.502Z,39.72
2022-08-23T11:49:14.870Z,40.69
2022-08-23T11:52:00.167Z,40.79
2022-08-23T11:54:36.518Z,40.38
2022-08-23T11:57:12.027Z,40.17
2022-08-23T11:59:43.487Z,40.47
2022-08-23T12:02:32.250Z,40.86
2022-08-23T12:05:00.467Z,41.13
2022-08-23T12:07:45.383Z,39.33
2022-08-23T12:10:16.165Z,40.41
2022-08-23T12:12:46.999Z,39.59
2022-08-23T12:15:16.832Z,39.55
2022-08-23T12:17:43.479Z,40.11
2022-08-23T12:20:16.996Z,40.42
2022-08-23T12:23:02.650Z,40.19
2022-08-23T12:25:31.514Z,39.95
2022-08-23T12:28:17.285Z,40.25
2022-08-23T12:30:52.700Z,40.08
2022-08-23T12:33:42.175Z,39.71
2022-08-23T12:36:22.681Z,40.10
2022-08-23T12:38:52.113Z,40.01
2022-08-23T12:41:24.330Z,39.62
2022-08-23T12:44:08.323Z,40.58
2022-08-23T12:46:42.862Z,39.71
2022-08-23T12:49:12.582Z,39.61
2022-08-23T12:51:50.367Z,39.22
2022-08-23T12:54:18.824Z,39.99
2022-08-23T12:56:50.257Z,39.42
2022-08-23T12:59:37.587Z,39.64
2022-08-23T13:02:06.883Z,39.77
2022-08-23T13:04:35.064Z,39.54
2022-08-23T13:07:06.962Z,38.20
2022-08-23T13:09:35.495Z,39.71
2022-08-23T13:12:02.993Z,39.45
2022-08-23T13:14:32.194Z,39.33
2022-08-23T13:17:13.076Z,38.91
2022-08-23T13:19:39.638Z,39.69
2022-08-23T13:22:14.058Z,39.77
2022-08-23T13:24:45.526Z,39.47
2022-08-23T13:27:17.255Z,39.39
2022-08-23T13:29:50.978Z,39.34
2022-08-23T13:32:36.465Z,40.05
2022-08-23T13:35:23.800Z,39.29
2022-08-23T13:37:50.785Z,39.58
2022-08-23T13:40:29.159Z,39.75
2022-08-23T13:43:04.480Z,39.52
2022-08-23T13:45:32.656Z,39.57
2022-08-23T13:48:01.677Z,37.99
2022-08-23T13:50:28.098Z,39.52
2022-08-23T13:53:13.809Z,39.28
2022-08-23T13:55:45.839Z,39.30
2022-08-23T13:58:17.306Z,39.28
2022-08-23T14:00:55.100Z,38.98
2022-08-23T14:03:24.322Z,39.33
2022-08-23T14:05:51.173Z,38.80
2022-08-23T14:08:17.570Z,38.97
2022-08-23T14:10:46.430Z,39.07
2022-08-23T14:13:16.906Z,39.39
2022-08-23T14:16:58.615Z,39.39
2022-08-23T14:18:32.450Z,39.57
2022-08-23T14:20:59.347Z,39.47
2022-08-23T14:23:26.160Z,39.40
2022-08-23T14:25:55.313Z,39.72
2022-08-23T14:28:24.001Z,39.60
2022-08-23T14:30:51.470Z,39.72
2022-08-23T14:33:24.553Z,39.11
2022-08-23T14:35:52.442Z,39.56
2022-08-23T14:38:19.139Z,39.84
2022-08-23T14:40:51.166Z,40.15
2022-08-23T14:43:17.614Z,38.12
2022-08-23T14:45:44.118Z,39.83
2022-08-23T14:48:11.255Z,39.87
2022-08-23T14:50:42.086Z,39.08
2022-08-23T14:53:08.934Z,40.07
2022-08-23T14:55:36.380Z,39.97
2022-08-23T14:58:03.618Z,40.06
2022-08-23T15:00:31.131Z,40.12
2022-08-23T15:02:57.733Z,40.49
2022-08-23T15:05:26.060Z,40.28
2022-08-23T15:07:52.689Z,40.45
2022-08-23T15:13:20.951Z,40.57
2022-08-23T15:15:49.143Z,40.02
2022-08-23T15:18:19.326Z,39.93
2022-08-23T15:20:52.359Z,40.07
2022-08-23T15:23:19.543Z,40.18
2022-08-23T15:25:45.949Z,40.42
2022-08-23T15:28:19.432Z,40.45
2022-08-23T15:30:48.197Z,40.25
2022-08-23T15:33:14.929Z,39.73
2022-08-23T15:35:42.952Z,40.12
2022-08-23T15:38:11.543Z,40.40
2022-08-23T15:40:41.197Z,40.28
2022-08-23T15:43:07.893Z,39.65
2022-08-23T15:45:34.807Z,39.91
2022-08-23T15:48:01.852Z,40.11
2022-08-23T15:50:31.058Z,40.00
2022-08-23T15:52:58.103Z,40.85
2022-08-23T15:55:28.006Z,40.17
2022-08-23T15:57:54.642Z,40.58
2022-08-23T16:00:21.880Z,40.83
2022-08-23T16:03:18.953Z,40.87
2022-08-23T16:05:36.608Z,40.40
2022-08-23T16:08:04.466Z,40.68
2022-08-23T16:10:30.925Z,40.69
2022-08-23T16:12:57.333Z,40.11
2022-08-23T16:15:23.770Z,40.18
2022-08-23T16:17:50.187Z,40.76
2022-08-23T16:20:17.591Z,41.58
2022-08-23T16:22:44.141Z,41.62
2022-08-23T16:25:10.646Z,42.02
2022-08-23T16:27:37.175Z,41.93
2022-08-23T16:30:04.337Z,40.87
2022-08-23T16:32:30.825Z,41.58
2022-08-23T16:34:57.293Z,42.26
2022-08-23T16:37:23.735Z,42.70
2022-08-23T16:39:50.196Z,42.42
2022-08-23T16:42:16.658Z,42.13
2022-08-23T16:44:43.192Z,42.15
2022-08-23T16:47:10.866Z,42.22
2022-08-23T16:49:37.285Z,42.57
2022-08-23T16:52:04.443Z,42.11
2022-08-23T16:54:31.065Z,42.30
2022-08-23T16:56:59.916Z,42.36
2022-08-23T16:59:26.368Z,42.72
2022-08-23T17:01:52.847Z,42.58
2022-08-23T17:04:20.147Z,42.62
2022-08-23T17:06:46.766Z,42.61
2022-08-23T17:09:14.090Z,42.09
2022-08-23T17:11:40.994Z,42.55
2022-08-23T17:14:07.470Z,42.83
2022-08-23T17:16:34.113Z,43.38
2022-08-23T17:19:00.706Z,44.12
2022-08-23T17:21:30.732Z,43.32
2022-08-23T17:23:57.163Z,43.95
2022-08-23T17:26:24.396Z,44.07
2022-08-23T17:28:50.838Z,44.53
2022-08-23T17:31:20.182Z,45.57
2022-08-23T17:33:47.255Z,45.34
2022-08-23T17:36:22.504Z,46.46
2022-08-23T17:38:48.921Z,46.13
2022-08-23T17:41:17.448Z,45.93
2022-08-23T17:43:43.929Z,45.80
2022-08-23T17:46:10.370Z,46.31
2022-08-23T17:48:36.808Z,46.41
2022-08-23T17:51:03.261Z,46.79
2022-08-23T17:53:29.746Z,47.82
2022-08-23T17:55:57.054Z,47.12
2022-08-23T17:58:23.549Z,47.45
2022-08-23T18:00:52.511Z,48.04
2022-08-23T18:03:18.992Z,48.13
2022-08-23T18:05:46.778Z,48.18
2022-08-23T18:08:16.241Z,48.37
2022-08-23T18:10:42.695Z,48.70
2022-08-23T18:13:09.124Z,49.14
2022-08-23T18:15:35.707Z,49.39
2022-08-23T18:18:02.512Z,49.44
2022-08-23T18:20:29.050Z,49.44
2022-08-23T18:22:59.103Z,49.83
2022-08-23T18:25:28.888Z,49.63
2022-08-23T18:28:12.867Z,49.78
2022-08-23T18:30:45.585Z,50.14
2022-08-23T18:33:14.798Z,50.59
2022-08-23T18:35:41.641Z,50.75
2022-08-23T18:38:08.342Z,51.38
2022-08-23T18:40:45.247Z,51.93
2022-08-23T18:43:16.941Z,51.65
2022-08-23T18:45:44.151Z,52.60
2022-08-23T18:48:12.235Z,52.57
2022-08-23T18:50:39.391Z,52.52
2022-08-23T18:53:05.945Z,53.38
2022-08-23T18:55:32.453Z,52.63
2022-08-23T18:57:59.252Z,53.26
2022-08-23T19:00:25.724Z,53.75
2022-08-23T19:02:53.080Z,53.49
2022-08-23T19:05:19.560Z,53.45
2022-08-23T19:07:45.970Z,53.40
2022-08-23T19:10:18.363Z,54.41
2022-08-23T19:12:51.707Z,54.50
2022-08-23T19:15:21.581Z,54.92
2022-08-23T19:17:48.106Z,54.93
2022-08-23T19:20:15.172Z,54.24
2022-08-23T19:22:42.789Z,54.46
2022-08-23T19:25:09.519Z,55.88
2022-08-23T19:27:36.068Z,55.31
2022-08-23T19:30:03.006Z,55.20
2022-08-23T19:32:37.442Z,56.71
2022-08-23T19:35:05.954Z,56.18
2022-08-23T19:37:32.621Z,56.73
2022-08-23T19:40:00.173Z,56.13
2022-08-23T19:42:26.766Z,57.46
2022-08-23T19:44:53.766Z,57.57
2022-08-23T19:47:23.637Z,57.08
2022-08-23T19:49:58.901Z,57.21
2022-08-23T19:52:25.311Z,58.12
2022-08-23T19:54:51.780Z,57.82
2022-08-23T19:57:18.924Z,57.29
2022-08-23T19:59:45.500Z,57.93
2022-08-23T20:02:13.929Z,58.28
2022-08-23T20:04:43.140Z,59.16
2022-08-23T20:07:09.569Z,58.38
2022-08-23T20:09:36.060Z,58.30
2022-08-23T20:12:05.102Z,59.85
2022-08-23T20:14:33.262Z,58.63
2022-08-23T20:17:04.520Z,58.34
2022-08-23T20:19:34.577Z,58.91
2022-08-23T20:22:20.006Z,58.96
2022-08-23T20:24:51.906Z,60.58
2022-08-23T20:27:28.369Z,60.11
2022-08-23T20:29:58.963Z,58.91
2022-08-23T20:32:26.331Z,58.88
2022-08-23T20:34:52.762Z,58.21
2022-08-23T20:37:22.251Z,58.66
2022-08-23T20:39:52.369Z,59.44
2022-08-23T20:42:18.883Z,59.19
2022-08-23T20:44:45.416Z,59.40
2022-08-23T20:47:15.963Z,60.04
2022-08-23T20:49:45.970Z,59.79
2022-08-23T20:52:12.457Z,60.06
2022-08-23T20:54:42.406Z,60.38
2022-08-23T20:57:08.802Z,60.85
2022-08-23T20:59:35.323Z,61.09
2022-08-23T21:02:06.188Z,61.40
2022-08-23T21:04:32.753Z,62.23
2022-08-23T21:06:59.524Z,62.85
2022-08-23T21:09:35.856Z,62.98
2022-08-23T21:12:02.645Z,62.59
2022-08-23T21:14:29.132Z,63.25
2022-08-23T21:16:56.469Z,62.74
2022-08-23T21:19:22.916Z,63.20
2022-08-23T21:21:52.912Z,63.36
2022-08-23T21:24:19.810Z,65.10
2022-08-23T21:26:51.412Z,64.87
2022-08-23T21:29:17.851Z,65.60
2022-08-23T21:31:44.302Z,66.64
2022-08-23T21:34:11.809Z,65.86
2022-08-23T21:36:38.296Z,64.01
2022-08-23T21:39:05.129Z,65.00
2022-08-23T21:41:37.694Z,65.08
2022-08-23T21:44:09.043Z,65.26
2022-08-23T21:46:35.948Z,65.21
2022-08-23T21:49:02.432Z,65.27
2022-08-23T21:51:29.787Z,66.10
2022-08-23T21:53:59.337Z,66.30
2022-08-23T21:56:26.231Z,65.24
2022-08-23T21:58:53.447Z,65.61
2022-08-23T22:01:19.915Z,64.64
2022-08-23T22:03:46.506Z,66.56
2022-08-23T22:06:17.102Z,65.38
2022-08-23T22:08:46.953Z,66.71
2022-08-23T22:11:14.881Z,66.52
2022-08-23T22:13:41.631Z,65.45
2022-08-23T22:16:08.477Z,65.94
2022-08-23T22:18:35.421Z,65.78
2022-08-23T22:21:02.722Z,66.41
2022-08-23T22:23:30.140Z,67.09
2022-08-23T22:25:57.341Z,66.51
2022-08-23T22:28:27.800Z,67.25
2022-08-23T22:30:59.929Z,66.27
2022-08-23T22:33:26.696Z,66.06
2022-08-23T22:35:53.430Z,65.76
2022-08-23T22:38:22.621Z,66.17
2022-08-23T22:40:52.843Z,66.92
2022-08-23T22:43:19.936Z,67.94
2022-08-23T22:45:50.138Z,67.73
2022-08-23T22:48:16.760Z,67.68
2022-08-23T22:50:46.627Z,67.54
2022-08-23T22:53:13.417Z,67.35
2022-08-23T22:55:40.884Z,67.43
2022-08-23T22:58:07.683Z,67.52
2022-08-23T23:00:34.380Z,68.34
2022-08-23T23:03:01.050Z,68.09
2022-08-23T23:05:29.104Z,68.66
2022-08-23T23:08:14.124Z,69.47
2022-08-23T23:10:46.113Z,70.22
2022-08-23T23:13:12.542Z,70.34
2022-08-23T23:15:40.174Z,70.70
2022-08-23T23:18:06.599Z,70.56
2022-08-23T23:20:40.185Z,70.80
2022-08-23T23:23:07.713Z,70.17
2022-08-23T23:25:34.462Z,69.88
2022-08-23T23:28:02.543Z,70.03
2022-08-23T23:30:29.326Z,70.02
2022-08-23T23:32:59.381Z,70.00
2022-08-23T23:35:28.193Z,70.43
2022-08-23T23:37:55.412Z,70.61
2022-08-23T23:40:22.592Z,70.64
2022-08-23T23:42:49.157Z,70.54
2022-08-23T23:45:16.515Z,72.85
2022-08-23T23:47:46.227Z,72.74
2022-08-23T23:50:17.100Z,75.58
2022-08-23T23:52:44.033Z,75.77
2022-08-23T23:55:12.115Z,75.11
2022-08-23T23:57:38.999Z,74.19
